Time;durP1;ratioP1;P1;durP2;ratioP2;P2;SDS_P1;SDS_P2;PMS_P1;PMS_P2;Temp;Humidity;BMP_temperature;BMP_pressure;BME280_temperature;BME280_humidity;BME280_pressure;Samples;Min_cycle;Max_cycle;Signal;HPM_P1;HPM_P2
2023/05/27 00:02:15;;;;;;;14.57;3.55;;;;;;;9.58;100.00;103127.41;5035416;28;20045;-75
2023/05/27 00:04:42;;;;;;;17.23;4.93;;;;;;;9.55;100.00;103124.66;5020705;28;20041;-77
2023/05/27 00:07:09;;;;;;;13.68;4.03;;;;;;;9.54;100.00;103138.66;4979360;28;20053;-77
2023/05/27 00:09:37;;;;;;;10.27;3.45;;;;;;;9.52;100.00;103133.31;5012578;28;20706;-75
2023/05/27 00:12:04;;;;;;;9.27;4.00;;;;;;;9.52;100.00;103129.78;5041554;28;20053;-77
2023/05/27 00:14:31;;;;;;;17.60;3.63;;;;;;;9.50;100.00;103131.47;5003941;28;20041;-76
2023/05/27 00:17:01;;;;;;;14.23;3.47;;;;;;;9.47;100.00;103131.31;5019312;28;20054;-77
2023/05/27 00:19:29;;;;;;;12.55;3.35;;;;;;;9.45;100.00;103131.28;5001195;28;20053;-76
2023/05/27 00:21:57;;;;;;;14.68;3.85;;;;;;;9.47;100.00;103136.56;5020234;28;20052;-75
2023/05/27 00:24:24;;;;;;;15.15;3.22;;;;;;;9.47;100.00;103132.22;4983893;28;20050;-75
2023/05/27 00:26:52;;;;;;;16.05;4.00;;;;;;;9.46;100.00;103117.25;5038939;28;20052;-76
2023/05/27 00:29:19;;;;;;;17.02;4.03;;;;;;;9.45;100.00;103125.06;5023891;28;20511;-76
2023/05/27 00:31:47;;;;;;;20.88;4.45;;;;;;;9.45;100.00;103126.00;5021733;28;20069;-76
2023/05/27 00:34:16;;;;;;;15.05;3.35;;;;;;;9.43;100.00;103122.38;5008225;28;20056;-75
2023/05/27 00:36:44;;;;;;;15.90;4.50;;;;;;;9.43;100.00;103121.47;5026503;28;20037;-75
2023/05/27 00:39:11;;;;;;;17.83;3.40;;;;;;;9.41;100.00;103124.03;4966771;28;20049;-75
2023/05/27 00:41:47;;;;;;;15.85;3.60;;;;;;;9.41;100.00;103129.31;5004305;28;20157;-75
2023/05/27 00:44:15;;;;;;;16.52;3.85;;;;;;;9.43;100.00;103121.47;5023534;28;20046;-76
2023/05/27 00:46:47;;;;;;;18.65;4.10;;;;;;;9.44;100.00;103128.56;5020056;28;20049;-75
2023/05/27 00:49:17;;;;;;;19.33;3.75;;;;;;;9.43;100.00;103118.84;5022899;28;20136;-75
2023/05/27 00:51:45;;;;;;;14.43;4.05;;;;;;;9.44;100.00;103118.03;4990993;28;20045;-77
2023/05/27 00:54:12;;;;;;;15.90;3.35;;;;;;;9.46;100.00;103119.00;4982845;28;20037;-75
2023/05/27 00:56:43;;;;;;;23.10;4.03;;;;;;;9.45;100.00;103109.28;5016180;28;20071;-77
2023/05/27 00:59:11;;;;;;;17.88;3.67;;;;;;;9.44;100.00;103107.50;5023487;28;20072;-75
2023/05/27 01:01:40;;;;;;;12.77;3.28;;;;;;;9.43;100.00;103110.97;5018455;28;20050;-75
2023/05/27 01:04:12;;;;;;;14.40;3.40;;;;;;;9.41;100.00;103118.78;5024511;28;20052;-76
2023/05/27 01:07:03;;;;;;;14.32;3.20;;;;;;;9.41;100.00;103128.41;5009707;28;20068;-75
2023/05/27 01:09:40;;;;;;;19.13;3.95;;;;;;;9.41;100.00;103117.88;4990437;28;20042;-77
2023/05/27 01:12:33;;;;;;;14.75;3.97;;;;;;;9.39;100.00;103119.56;5009831;28;20498;-77
2023/05/27 01:15:05;;;;;;;11.13;3.33;;;;;;;9.38;100.00;103131.81;5024086;28;20052;-76
2023/05/27 01:17:42;;;;;;;9.50;3.30;;;;;;;9.40;100.00;103127.53;5020488;28;20045;-76
2023/05/27 01:20:11;;;;;;;17.13;3.92;;;;;;;9.41;100.00;103118.78;5007466;28;20069;-76
2023/05/27 01:22:41;;;;;;;11.27;3.20;;;;;;;9.42;100.00;103111.81;5011407;28;20037;-77
2023/05/27 01:25:09;;;;;;;19.65;4.15;;;;;;;9.43;100.00;103116.22;4961389;28;20037;-76
2023/05/27 01:27:40;;;;;;;12.73;3.60;;;;;;;9.43;100.00;103110.97;5000699;28;20046;-77
2023/05/27 01:30:08;;;;;;;12.45;4.00;;;;;;;9.45;100.00;103119.81;5007398;28;20060;-76
2023/05/27 01:32:48;;;;;;;24.80;4.25;;;;;;;9.44;100.00;103111.03;5019979;28;20042;-76
2023/05/27 01:35:28;;;;;;;20.20;3.72;;;;;;;9.44;100.00;103110.13;5024680;28;20046;-76
2023/05/27 01:37:57;;;;;;;10.90;3.30;;;;;;;9.44;100.00;103111.03;5034375;28;20052;-77
2023/05/27 01:40:28;;;;;;;15.68;3.92;;;;;;;9.44;100.00;103108.41;4990627;28;20053;-76
2023/05/27 01:42:58;;;;;;;18.73;4.30;;;;;;;9.45;100.00;103101.41;5011297;28;20057;-75
2023/05/27 01:45:26;;;;;;;22.00;4.65;;;;;;;9.45;100.00;103096.13;5038101;28;20498;-76
2023/05/27 01:47:53;;;;;;;13.90;4.38;;;;;;;9.45;100.00;103101.41;5005766;28;20045;-76
2023/05/27 01:50:21;;;;;;;17.02;4.72;;;;;;;9.47;100.00;103097.09;5022335;28;20064;-75
2023/05/27 01:52:49;;;;;;;10.55;3.10;;;;;;;9.47;100.00;103094.47;5013090;28;20054;-75
2023/05/27 01:55:17;;;;;;;19.10;4.65;;;;;;;9.46;100.00;103090.94;5026171;28;20050;-75
2023/05/27 01:57:45;;;;;;;14.60;4.47;;;;;;;9.43;100.00;103088.16;4997630;28;20902;-76
2023/05/27 02:00:13;;;;;;;15.45;3.45;;;;;;;9.40;100.00;103089.78;5010786;28;20046;-76
2023/05/27 02:02:42;;;;;;;13.80;3.20;;;;;;;9.37;100.00;103090.53;5011484;28;20045;-75
2023/05/27 02:05:13;;;;;;;16.88;3.67;;;;;;;9.35;100.00;103092.19;5009224;28;20058;-76
2023/05/27 02:07:40;;;;;;;14.60;4.00;;;;;;;9.35;100.00;103084.31;5025391;28;20048;-77
2023/05/27 02:10:09;;;;;;;14.35;3.67;;;;;;;9.34;100.00;103083.41;5023105;28;20061;-77
2023/05/27 02:12:37;;;;;;;14.68;4.13;;;;;;;9.34;100.00;103083.41;4970753;28;20049;-77
2023/05/27 02:15:05;;;;;;;17.63;4.50;;;;;;;9.32;100.00;103079.81;5016916;28;20049;-77
2023/05/27 02:17:33;;;;;;;11.90;4.03;;;;;;;9.32;100.00;103092.09;5023992;28;20045;-77
2023/05/27 02:20:00;;;;;;;19.45;3.95;;;;;;;9.31;100.00;103088.53;5006388;28;20045;-77
2023/05/27 02:22:28;;;;;;;14.93;3.75;;;;;;;9.31;100.00;103085.00;5018847;28;20045;-77
2023/05/27 02:24:55;;;;;;;13.23;4.03;;;;;;;9.32;100.00;103092.97;5005294;28;20437;-77
2023/05/27 02:27:22;;;;;;;11.10;3.58;;;;;;;9.33;100.00;103086.88;4992354;28;20498;-77
2023/05/27 02:29:51;;;;;;;17.42;4.00;;;;;;;9.36;100.00;103097.53;4992172;28;20669;-76
2023/05/27 02:32:19;;;;;;;10.63;3.50;;;;;;;9.39;100.00;103095.88;5009485;28;20842;-76
2023/05/27 02:34:47;;;;;;;14.00;3.75;;;;;;;9.43;100.00;103108.31;5023525;28;20812;-76
2023/05/27 02:37:15;;;;;;;16.27;3.72;;;;;;;9.45;100.00;103099.69;4981619;28;20422;-76
2023/05/27 02:39:42;;;;;;;13.02;3.70;;;;;;;9.46;100.00;103092.69;4996555;28;20049;-77
2023/05/27 02:42:10;;;;;;;16.63;3.67;;;;;;;9.49;100.00;103096.34;5010353;28;20521;-77
2023/05/27 02:44:37;;;;;;;15.38;3.55;;;;;;;9.51;100.00;103081.53;4955696;28;20049;-77
2023/05/27 02:47:05;;;;;;;15.25;3.72;;;;;;;9.50;100.00;103084.06;5026001;28;20407;-77
2023/05/27 02:49:33;;;;;;;25.38;5.35;;;;;;;9.53;100.00;103094.75;5006437;28;20038;-77
2023/05/27 02:52:02;;;;;;;17.70;4.57;;;;;;;9.54;100.00;103089.53;5009473;28;20502;-76
2023/05/27 02:54:30;;;;;;;19.15;3.85;;;;;;;9.55;100.00;103093.09;4994878;28;20046;-77
2023/05/27 02:56:57;;;;;;;19.67;4.72;;;;;;;9.56;100.00;103090.53;5007839;28;20049;-76
2023/05/27 02:59:25;;;;;;;18.63;4.57;;;;;;;9.57;100.00;103083.53;4987774;28;20041;-77
2023/05/27 03:01:53;;;;;;;13.90;3.85;;;;;;;9.60;100.00;103088.91;5005336;28;20037;-76
2023/05/27 03:04:21;;;;;;;13.68;3.80;;;;;;;9.62;100.00;103086.34;5008542;28;20510;-76
2023/05/27 03:06:48;;;;;;;11.18;3.63;;;;;;;9.62;100.00;103082.00;4990592;28;20049;-76
2023/05/27 03:09:16;;;;;;;14.00;3.88;;;;;;;9.62;100.00;103076.72;5009055;28;20057;-76
2023/05/27 03:11:43;;;;;;;17.13;4.45;;;;;;;9.60;100.00;103075.72;5008387;28;20076;-76
2023/05/27 03:14:10;;;;;;;14.95;3.20;;;;;;;9.61;100.00;103076.66;5025943;28;20141;-76
2023/05/27 03:16:38;;;;;;;16.52;3.95;;;;;;;9.59;100.00;103067.78;4978716;28;20076;-77
2023/05/27 03:19:05;;;;;;;17.38;3.70;;;;;;;9.55;100.00;103066.75;5008538;28;20053;-77
2023/05/27 03:21:33;;;;;;;16.65;4.13;;;;;;;9.54;100.00;103070.22;5022476;28;20049;-77
2023/05/27 03:24:01;;;;;;;16.90;4.13;;;;;;;9.54;100.00;103070.22;5025762;28;20414;-77
2023/05/27 03:26:28;;;;;;;13.25;3.30;;;;;;;9.51;100.00;103063.09;5012333;28;20050;-77
2023/05/27 03:28:58;;;;;;;16.07;3.80;;;;;;;9.49;100.00;103062.13;5008892;28;20041;-76
2023/05/27 03:31:25;;;;;;;16.05;3.65;;;;;;;9.48;100.00;103064.69;4977377;28;20445;-75
2023/05/27 03:34:01;;;;;;;17.67;3.75;;;;;;;9.45;100.00;103069.81;5009527;28;20050;-77
2023/05/27 03:36:28;;;;;;;10.70;3.42;;;;;;;9.43;100.00;103077.63;5022703;28;20048;-77
2023/05/27 03:38:56;;;;;;;16.27;4.25;;;;;;;9.44;100.00;103078.56;5023912;28;20045;-77
2023/05/27 03:41:25;;;;;;;21.83;4.75;;;;;;;9.46;100.00;103074.25;4997099;28;20056;-77
2023/05/27 03:43:54;;;;;;;15.88;4.53;;;;;;;9.47;100.00;103076.97;5024027;28;20077;-76
2023/05/27 03:46:23;;;;;;;12.90;3.88;;;;;;;9.49;100.00;103074.38;4978422;28;20060;-77
2023/05/27 03:48:51;;;;;;;14.88;3.78;;;;;;;9.50;100.00;103074.44;5015910;28;20041;-77
2023/05/27 03:51:20;;;;;;;11.35;3.25;;;;;;;9.54;100.00;103073.72;5021113;28;20050;-77
2023/05/27 03:53:48;;;;;;;15.07;4.15;;;;;;;9.59;100.00;103063.41;5014127;28;20060;-77
2023/05/27 03:56:15;;;;;;;12.02;3.20;;;;;;;9.64;100.00;103067.16;5025264;28;20049;-77
2023/05/27 03:58:44;;;;;;;16.35;3.70;;;;;;;9.67;100.00;103072.53;4983394;28;20060;-76
2023/05/27 04:01:13;;;;;;;18.20;4.28;;;;;;;9.71;100.00;103070.94;4962974;28;20050;-76
2023/05/27 04:03:43;;;;;;;12.60;4.47;;;;;;;9.78;100.00;103067.72;5012142;28;20049;-77
2023/05/27 04:06:12;;;;;;;13.05;4.13;;;;;;;9.83;100.00;103075.81;5013519;28;20514;-76
2023/05/27 04:08:40;;;;;;;14.10;3.83;;;;;;;9.87;100.00;103069.88;5001837;28;20049;-76
2023/05/27 04:11:14;;;;;;;18.10;4.30;;;;;;;9.94;100.00;103061.34;5009340;28;20068;-76
2023/05/27 04:13:42;;;;;;;10.73;3.58;;;;;;;10.23;100.00;103061.66;5008889;28;20048;-76
2023/05/27 04:16:10;;;;;;;13.73;3.33;;;;;;;10.65;100.00;103061.56;4989369;28;20050;-76
2023/05/27 04:18:37;;;;;;;12.32;3.97;;;;;;;11.12;100.00;103065.09;5008344;28;20502;-76
2023/05/27 04:21:06;;;;;;;14.05;3.75;;;;;;;11.55;100.00;103057.75;5020423;28;20049;-76
2023/05/27 04:23:33;;;;;;;18.92;5.82;;;;;;;12.01;100.00;103065.53;4997055;28;20056;-76
2023/05/27 04:26:04;;;;;;;15.98;3.80;;;;;;;12.41;100.00;103058.88;5021434;28;20053;-76
2023/05/27 04:28:35;;;;;;;12.73;3.65;;;;;;;12.63;100.00;103049.84;4993461;28;20049;-76
2023/05/27 04:31:02;;;;;;;17.85;4.13;;;;;;;12.65;100.00;103047.25;5021706;28;20053;-76
2023/05/27 04:33:44;;;;;;;15.23;4.10;;;;;;;12.85;100.00;103059.31;4980177;28;20060;-76
2023/05/27 04:36:12;;;;;;;17.23;3.65;;;;;;;12.80;100.00;103049.47;5020002;28;20132;-76
2023/05/27 04:38:57;;;;;;;15.57;4.55;;;;;;;12.72;100.00;103059.81;4999346;28;20414;-76
2023/05/27 04:41:28;;;;;;;15.98;4.05;;;;;;;12.57;100.00;103051.41;5002920;28;20045;-76
2023/05/27 04:44:12;;;;;;;13.60;3.85;;;;;;;12.34;100.00;103062.16;4997071;28;20062;-76
2023/05/27 04:46:43;;;;;;;15.10;3.33;;;;;;;12.18;100.00;103058.16;5022286;28;20076;-76
2023/05/27 04:49:12;;;;;;;18.55;4.57;;;;;;;12.14;100.00;103058.91;4953996;28;20053;-76
2023/05/27 04:51:41;;;;;;;12.73;3.65;;;;;;;12.44;100.00;103056.31;5021504;28;20061;-76
2023/05/27 04:54:08;;;;;;;11.45;3.63;;;;;;;12.71;100.00;103047.44;4991305;28;20056;-76
2023/05/27 04:56:38;;;;;;;16.98;4.70;;;;;;;12.99;100.00;103053.53;5005395;28;20041;-75
2023/05/27 04:59:07;;;;;;;18.77;4.35;;;;;;;13.26;100.00;103062.22;5019956;28;20061;-76
2023/05/27 05:01:58;;;;;;;14.90;4.63;;;;;;;13.28;100.00;103054.31;5010916;28;20050;-76
2023/05/27 05:04:26;;;;;;;18.05;4.38;;;;;;;13.25;100.00;103060.44;4938310;28;20065;-75
2023/05/27 05:07:00;;;;;;;12.27;3.90;;;;;;;13.17;100.00;103051.38;5036329;28;20062;-75
2023/05/27 05:09:29;;;;;;;15.70;4.03;;;;;;;13.12;100.00;103054.75;5011210;28;20053;-77
2023/05/27 05:12:04;;;;;;;13.52;4.05;;;;;;;12.94;100.00;103063.97;4995707;28;20052;-76
2023/05/27 05:14:35;;;;;;;15.02;4.40;;;;;;;12.67;100.00;103062.31;5018526;28;20053;-78
2023/05/27 05:17:03;;;;;;;18.20;4.72;;;;;;;12.52;100.00;103060.97;4981237;28;20061;-75
2023/05/27 05:19:32;;;;;;;17.27;4.38;;;;;;;12.33;100.00;103060.38;4992200;28;20479;-78
2023/05/27 05:22:00;;;;;;;12.02;3.95;;;;;;;12.13;100.00;103058.84;5009933;28;20049;-77
2023/05/27 05:24:29;;;;;;;22.27;4.72;;;;;;;12.00;100.00;103061.13;4979216;28;20062;-77
2023/05/27 05:26:56;;;;;;;18.60;4.45;;;;;;;11.83;100.00;103049.97;4995139;28;20056;-77
2023/05/27 05:29:25;;;;;;;14.98;4.57;;;;;;;11.70;100.00;103053.00;5011925;28;20640;-77
2023/05/27 05:31:52;;;;;;;15.23;4.47;;;;;;;11.60;100.00;103053.56;5011215;28;20084;-76
2023/05/27 05:34:22;;;;;;;13.48;4.00;;;;;;;11.57;100.00;103043.78;5017093;28;20068;-77
2023/05/27 05:36:50;;;;;;;16.08;5.15;;;;;;;11.64;100.00;103043.13;4969907;28;20054;-75
2023/05/27 05:39:17;;;;;;;24.95;5.22;;;;;;;11.68;100.00;103039.78;5036235;28;20053;-77
2023/05/27 05:41:49;;;;;;;13.98;3.70;;;;;;;11.76;100.00;103037.38;5028526;28;20597;-75
2023/05/27 05:44:18;;;;;;;14.65;3.67;;;;;;;11.84;100.00;103037.63;5016969;28;20055;-75
2023/05/27 05:46:47;;;;;;;13.82;3.58;;;;;;;12.04;100.00;103028.66;5005456;28;20061;-74
2023/05/27 05:49:15;;;;;;;18.60;4.43;;;;;;;12.27;100.00;103031.13;5012344;28;20052;-74
2023/05/27 05:51:44;;;;;;;18.33;3.73;;;;;;;12.62;100.00;103028.63;4968289;28;20054;-74
2023/05/27 05:54:12;;;;;;;21.13;4.93;;;;;;;13.13;100.00;103022.13;5006237;28;20647;-74
2023/05/27 05:56:44;;;;;;;15.45;3.78;;;;;;;13.64;100.00;103022.63;4977049;28;20510;-74
2023/05/27 05:59:12;;;;;;;19.40;4.55;;;;;;;14.18;100.00;103020.41;5021859;28;20506;-74
2023/05/27 06:01:39;;;;;;;16.25;5.28;;;;;;;14.64;100.00;103020.53;5003561;28;20053;-74
2023/05/27 06:04:07;;;;;;;12.80;4.00;;;;;;;14.84;100.00;103021.84;4994136;28;20057;-75
2023/05/27 06:06:40;;;;;;;10.40;3.72;;;;;;;15.04;100.00;103032.84;4958823;28;20065;-75
2023/05/27 06:09:24;;;;;;;10.75;3.45;;;;;;;15.20;100.00;103023.44;5010224;28;20477;-74
2023/05/27 06:11:55;;;;;;;12.05;4.15;;;;;;;15.53;100.00;103025.78;4999588;28;20057;-74
2023/05/27 06:14:23;;;;;;;12.82;4.38;;;;;;;15.88;100.00;103028.19;5026909;28;20050;-75
2023/05/27 06:16:53;;;;;;;16.08;4.63;;;;;;;16.14;100.00;103023.25;5006446;28;20048;-74
2023/05/27 06:19:20;;;;;;;14.88;4.25;;;;;;;16.02;100.00;103030.16;5007551;28;20049;-74
2023/05/27 06:21:48;;;;;;;17.30;5.32;;;;;;;15.86;100.00;103027.25;4958676;28;22700;-75
2023/05/27 06:24:34;;;;;;;17.58;4.22;;;;;;;15.98;100.00;103015.91;5036127;28;20052;-74
2023/05/27 06:27:08;;;;;;;15.13;4.35;;;;;;;15.96;100.00;103013.22;5009427;28;20050;-75
2023/05/27 06:29:36;;;;;;;15.85;4.13;;;;;;;15.86;100.00;103011.31;5013678;28;20045;-75
2023/05/27 06:32:05;;;;;;;22.33;5.03;;;;;;;15.71;100.00;103024.31;5008285;28;20530;-76
2023/05/27 06:34:32;;;;;;;20.13;5.45;;;;;;;15.77;100.00;103024.44;5010855;28;20056;-75
2023/05/27 06:37:00;;;;;;;19.33;3.90;;;;;;;15.76;100.00;103009.34;4961936;28;20057;-76
2023/05/27 06:39:27;;;;;;;15.88;4.50;;;;;;;15.58;100.00;103008.16;5006300;28;20049;-74
2023/05/27 06:41:54;;;;;;;16.17;4.28;;;;;;;15.43;100.00;103009.66;5006154;28;20041;-75
2023/05/27 06:44:41;;;;;;;12.57;4.13;;;;;;;15.35;100.00;103029.03;5028432;28;20077;-76
2023/05/27 06:47:28;;;;;;;17.42;4.82;;;;;;;15.25;100.00;103015.53;5021846;28;20053;-76
2023/05/27 06:49:56;;;;;;;26.48;5.60;;;;;;;15.13;100.00;103010.91;5011484;28;20084;-75
2023/05/27 06:52:23;;;;;;;14.93;4.20;;;;;;;15.03;100.00;103020.44;4986859;28;20072;-76
2023/05/27 06:55:25;;;;;;;19.40;4.70;;;;;;;14.81;100.00;103022.66;5034145;28;20057;-74
2023/05/27 06:57:58;;;;;;;19.65;4.50;;;;;;;14.60;100.00;103014.28;5023701;28;20057;-75
2023/05/27 07:00:40;;;;;;;17.73;4.07;;;;;;;14.59;100.00;103017.78;5007089;28;20049;-75
2023/05/27 07:03:46;;;;;;;15.15;5.47;;;;;;;14.38;100.00;103026.13;5018258;28;20073;-75
2023/05/27 07:06:19;;;;;;;19.63;5.55;;;;;;;14.30;100.00;103019.78;5000280;28;20060;-76
2023/05/27 07:08:49;;;;;;;25.63;5.68;;;;;;;14.35;100.00;103012.81;4988915;28;20068;-76
2023/05/27 07:11:27;;;;;;;18.15;4.82;;;;;;;14.26;100.00;103018.81;4994467;28;20049;-76
2023/05/27 07:14:00;;;;;;;19.85;3.83;;;;;;;14.31;100.00;103011.84;4992035;28;20503;-76
2023/05/27 07:16:31;;;;;;;17.48;5.18;;;;;;;14.33;100.00;103015.44;4996558;28;20522;-76
2023/05/27 07:18:59;;;;;;;17.30;5.60;;;;;;;14.30;100.00;103015.34;5021627;28;20068;-76
2023/05/27 07:21:30;;;;;;;14.63;4.50;;;;;;;14.24;100.00;103017.88;5000813;28;20052;-76
2023/05/27 07:24:03;;;;;;;18.58;5.00;;;;;;;14.28;100.00;103011.78;4962039;28;20802;-76
2023/05/27 07:26:33;;;;;;;19.17;4.70;;;;;;;14.52;100.00;103007.88;5005473;28;20075;-76
2023/05/27 07:29:01;;;;;;;12.38;4.40;;;;;;;14.70;100.00;103004.75;5022253;28;20590;-76
2023/05/27 07:31:51;;;;;;;19.60;4.80;;;;;;;14.87;100.00;103003.31;5013854;28;20749;-75
2023/05/27 07:34:21;;;;;;;21.13;5.83;;;;;;;15.03;100.00;102993.91;5023176;28;20053;-75
2023/05/27 07:36:48;;;;;;;16.38;4.72;;;;;;;15.08;100.00;103000.16;4998938;28;20300;-75
2023/05/27 07:39:15;;;;;;;17.83;5.03;;;;;;;14.92;100.00;102999.00;4964914;28;20049;-75
2023/05/27 07:41:43;;;;;;;12.85;4.57;;;;;;;14.90;100.00;102994.53;5020169;28;20546;-76
2023/05/27 07:44:10;;;;;;;16.40;5.85;;;;;;;14.92;100.00;102995.44;5007457;28;20049;-76
2023/05/27 07:46:38;;;;;;;20.50;4.55;;;;;;;15.03;100.00;102991.25;4986825;28;20042;-76
2023/05/27 07:49:06;;;;;;;17.55;4.82;;;;;;;15.01;100.00;102996.53;5019853;28;20049;-76
2023/05/27 07:51:40;;;;;;;16.50;4.65;;;;;;;14.91;100.00;102991.00;4991562;28;20410;-76
2023/05/27 07:54:10;;;;;;;13.95;4.57;;;;;;;14.95;100.00;102992.84;4966130;28;20671;-76
2023/05/27 07:56:37;;;;;;;18.25;4.82;;;;;;;15.06;100.00;102983.31;5017100;28;20064;-76
2023/05/27 07:59:05;;;;;;;14.02;4.32;;;;;;;15.11;100.00;102986.97;5021148;28;20057;-75
2023/05/27 08:01:32;;;;;;;15.00;4.80;;;;;;;15.09;100.00;102988.69;5025026;28;20049;-76
2023/05/27 08:04:00;;;;;;;19.38;5.45;;;;;;;14.99;100.00;102976.13;5003482;28;20102;-76
2023/05/27 08:06:54;;;;;;;14.18;4.53;;;;;;;14.92;100.00;102982.19;5004305;28;20057;-75
2023/05/27 08:09:32;;;;;;;15.52;4.53;;;;;;;14.89;100.00;102980.34;4994453;28;20049;-76
2023/05/27 08:12:00;;;;;;;20.48;5.45;;;;;;;14.99;100.00;102970.81;4965126;28;20053;-76
2023/05/27 08:14:45;;;;;;;16.13;4.28;;;;;;;15.12;100.00;102963.94;5022557;28;20049;-76
2023/05/27 08:17:39;;;;;;;19.15;5.03;;;;;;;15.21;100.00;102958.81;5001641;28;20616;-76
2023/05/27 08:20:10;;;;;;;15.45;4.18;;;;;;;15.22;100.00;102957.94;5014202;28;20057;-75
2023/05/27 08:22:58;;;;;;;15.23;4.55;;;;;;;15.21;100.00;102951.72;4968411;28;20053;-76
2023/05/27 08:25:50;;;;;;;10.73;4.25;;;;;;;15.12;100.00;102946.28;4989402;28;20061;-75
2023/05/27 08:28:34;;;;;;;20.73;4.88;;;;;;;14.98;100.00;102935.38;5013286;28;20503;-76
2023/05/27 08:31:32;;;;;;;17.48;5.15;;;;;;;15.06;100.00;102931.97;4989836;28;20060;-76
2023/05/27 08:34:02;;;;;;;17.77;4.05;;;;;;;15.13;100.00;102934.78;5006543;28;20060;-75
2023/05/27 08:36:31;;;;;;;17.23;3.58;;;;;;;15.07;100.00;102933.78;4996435;28;20422;-76
2023/05/27 08:39:00;;;;;;;13.75;4.18;;;;;;;15.09;100.00;102921.44;4996748;28;20042;-76
2023/05/27 08:41:32;;;;;;;16.48;5.15;;;;;;;15.16;100.00;102920.63;4946542;28;20042;-75
2023/05/27 08:44:03;;;;;;;18.83;4.85;;;;;;;15.15;100.00;102933.03;5020180;28;20049;-75
2023/05/27 08:46:56;;;;;;;14.27;4.20;;;;;;;15.18;100.00;102919.81;5019335;28;20054;-76
2023/05/27 08:49:23;;;;;;;17.10;5.05;;;;;;;15.16;100.00;102920.63;4987194;28;20422;-76
2023/05/27 08:51:52;;;;;;;21.45;4.60;;;;;;;15.12;100.00;102914.41;4999881;28;20085;-76
2023/05/27 08:54:21;;;;;;;18.52;4.68;;;;;;;15.11;100.00;102917.03;4981179;28;20064;-75
2023/05/27 08:56:55;;;;;;;;;;;;;;;15.11;100.00;102907.28;4976668;28;20058;-75
2023/05/27 08:59:22;;;;;;;18.90;4.60;;;;;;;15.19;100.00;102910.97;5012781;28;19928;-75
2023/05/27 09:01:51;;;;;;;20.67;4.85;;;;;;;15.22;100.00;102910.16;5014160;28;20049;-75
2023/05/27 09:04:19;;;;;;;19.65;4.47;;;;;;;15.24;100.00;102913.72;4988910;28;20049;-75
2023/05/27 09:06:47;;;;;;;15.98;5.03;;;;;;;15.27;100.00;102904.91;5006017;28;20495;-76
2023/05/27 09:09:16;;;;;;;11.80;3.80;;;;;;;15.31;100.00;102905.00;4980694;28;20049;-76
2023/05/27 09:11:44;;;;;;;12.05;3.92;;;;;;;15.42;100.00;102901.59;4990557;28;20054;-76
2023/05/27 09:14:20;;;;;;;17.42;5.00;;;;;;;15.49;100.00;102904.38;4967422;28;20058;-76
2023/05/27 09:16:48;;;;;;;11.50;3.63;;;;;;;15.50;100.00;102900.84;5012395;28;20049;-76
2023/05/27 09:19:19;;;;;;;14.15;4.10;;;;;;;15.57;100.00;102897.41;5012510;28;20637;-76
2023/05/27 09:21:48;;;;;;;19.92;4.72;;;;;;;15.67;100.00;102889.56;5021036;28;20061;-76
2023/05/27 09:24:15;;;;;;;21.13;4.95;;;;;;;15.69;100.00;102894.06;4993049;28;20046;-77
2023/05/27 09:26:43;;;;;;;14.52;3.97;;;;;;;15.81;100.00;102895.13;4976666;28;20080;-75
2023/05/27 09:29:10;;;;;;;13.75;4.70;;;;;;;15.83;100.00;102894.28;4983551;28;20050;-76
2023/05/27 09:31:39;;;;;;;14.20;3.95;;;;;;;15.89;100.00;102886.38;5017705;28;20108;-75
2023/05/27 09:34:11;;;;;;;13.20;4.45;;;;;;;15.95;100.00;102883.81;4984162;28;20045;-75
2023/05/27 09:36:51;;;;;;;21.45;4.90;;;;;;;15.97;100.00;102887.41;5010926;28;20045;-76
2023/05/27 09:39:21;;;;;;;16.40;4.72;;;;;;;15.90;100.00;102885.53;5009264;28;20060;-76
2023/05/27 09:41:55;;;;;;;;;;;;;;;15.88;100.00;102884.59;5011956;28;20410;-75
2023/05/27 09:44:28;;;;;;;14.18;4.82;;;;;;;15.90;100.00;102890.84;4974687;28;19924;-75
2023/05/27 09:46:57;;;;;;;10.65;4.05;;;;;;;15.88;100.00;102889.00;5020208;28;20048;-76
2023/05/27 09:49:27;;;;;;;14.75;3.90;;;;;;;15.86;100.00;102878.38;5022923;28;20125;-76
2023/05/27 09:51:57;;;;;;;18.95;4.80;;;;;;;15.99;100.00;102879.41;5011606;28;20056;-76
2023/05/27 09:54:27;;;;;;;14.20;4.33;;;;;;;16.03;100.00;102880.34;5023505;28;20053;-75
2023/05/27 09:56:56;;;;;;;11.27;3.83;;;;;;;16.17;100.00;102879.66;4985276;28;20307;-75
2023/05/27 09:59:25;;;;;;;14.00;4.50;;;;;;;16.21;100.00;102871.72;4971214;28;20052;-76
2023/05/27 10:01:53;;;;;;;19.10;4.60;;;;;;;16.19;100.00;102869.03;5019735;28;20064;-75
2023/05/27 10:04:26;;;;;;;15.68;4.63;;;;;;;16.29;100.00;102857.63;5012855;28;20068;-76
2023/05/27 10:06:54;;;;;;;19.70;5.38;;;;;;;16.25;100.00;102849.59;5014890;28;20526;-75
2023/05/27 10:09:21;;;;;;;15.90;4.65;;;;;;;16.25;100.00;102858.47;5054641;28;20494;-76
2023/05/27 10:11:49;;;;;;;15.20;4.40;;;;;;;16.22;100.00;102854.88;4990100;28;20914;-76
2023/05/27 10:14:16;;;;;;;14.05;4.47;;;;;;;16.25;100.00;102847.81;5005551;28;20499;-76
2023/05/27 10:16:53;;;;;;;13.10;4.40;;;;;;;16.40;100.00;102846.22;4975380;28;20041;-75
2023/05/27 10:19:21;;;;;;;15.77;4.57;;;;;;;16.58;100.00;102857.06;5016820;28;20060;-75
2023/05/27 10:21:49;;;;;;;15.38;4.10;;;;;;;16.66;100.00;102844.72;5016858;28;20045;-75
2023/05/27 10:24:16;;;;;;;10.13;4.53;;;;;;;16.59;98.52;102841.97;4993126;28;20403;-75
2023/05/27 10:26:45;;;;;;;12.30;4.47;;;;;;;16.59;99.52;102842.84;5027518;28;22736;-75
2023/05/27 10:29:17;;;;;;;18.30;5.07;;;;;;;16.66;99.83;102841.16;5026103;28;20056;-75
2023/05/27 10:31:45;;;;;;;11.63;4.30;;;;;;;16.68;99.57;102834.97;4990805;28;20041;-76
2023/05/27 10:34:17;;;;;;;15.20;4.55;;;;;;;16.67;98.85;102838.53;5009262;28;20064;-76
2023/05/27 10:36:45;;;;;;;11.35;4.22;;;;;;;16.80;98.76;102825.31;4994088;28;22920;-76
2023/05/27 10:39:17;;;;;;;17.65;4.55;;;;;;;16.92;98.99;102823.69;5012879;28;20053;-75
2023/05/27 10:41:53;;;;;;;20.90;5.25;;;;;;;17.08;100.00;102826.47;5020766;28;20418;-75
2023/05/27 10:44:30;;;;;;;19.27;4.63;;;;;;;17.29;99.35;102823.94;5007517;28;20414;-75
2023/05/27 10:47:03;;;;;;;14.77;4.85;;;;;;;17.41;99.91;102822.25;4955564;28;20049;-75
2023/05/27 10:49:35;;;;;;;11.90;3.60;;;;;;;17.52;99.35;102816.13;4999175;28;20053;-76
2023/05/27 10:52:13;;;;;;;8.45;3.55;;;;;;;17.59;98.01;102808.13;5018867;28;20041;-76
2023/05/27 10:54:43;;;;;;;15.57;5.38;;;;;;;17.62;97.41;102818.81;4996930;28;20053;-75
2023/05/27 10:57:10;;;;;;;13.90;4.47;;;;;;;17.58;98.26;102803.69;5004303;28;20061;-76
2023/05/27 10:59:45;;;;;;;10.10;4.20;;;;;;;17.65;97.48;102801.03;4982208;28;20057;-75
2023/05/27 11:02:12;;;;;;;14.98;5.30;;;;;;;17.71;97.88;102794.84;4977932;28;20042;-75
2023/05/27 11:04:42;;;;;;;16.55;5.30;;;;;;;17.71;96.95;102801.09;5021697;28;20057;-75
2023/05/27 11:07:09;;;;;;;11.95;4.00;;;;;;;17.70;98.11;102790.41;5011953;28;20061;-74
2023/05/27 11:09:44;;;;;;;18.80;5.60;;;;;;;17.78;98.16;102788.66;5012667;28;20049;-74
2023/05/27 11:12:22;;;;;;;18.20;5.93;;;;;;;17.86;98.99;102789.63;5001862;28;20530;-74
2023/05/27 11:14:54;;;;;;;17.80;5.47;;;;;;;17.98;98.52;102787.91;4994326;28;20053;-76
2023/05/27 11:17:22;;;;;;;13.00;5.57;;;;;;;17.88;97.38;102777.19;4979251;28;20060;-76
2023/05/27 11:19:51;;;;;;;14.98;5.15;;;;;;;17.93;98.29;102769.19;5017137;28;20050;-75
2023/05/27 11:22:19;;;;;;;12.50;4.90;;;;;;;18.05;98.25;102771.00;5024374;28;20049;-75
2023/05/27 11:25:00;;;;;;;21.83;6.00;;;;;;;18.22;100.00;102760.38;5007675;28;20050;-74
2023/05/27 11:27:36;;;;;;;16.25;4.50;;;;;;;18.33;100.00;102763.94;5004789;28;20041;-75
2023/05/27 11:30:11;;;;;;;11.25;4.00;;;;;;;18.39;100.00;102755.06;4988842;28;20042;-75
2023/05/27 11:32:41;;;;;;;11.55;4.22;;;;;;;18.40;100.00;102748.84;4975522;28;20042;-75